Time;durP1;ratioP1;P1;durP2;ratioP2;P2;SDS_P1;SDS_P2;PMS_P1;PMS_P2;Temp;Humidity;BMP_temperature;BMP_pressure;BME280_temperature;BME280_humidity;BME280_pressure;Samples;Min_cycle;Max_cycle;Signal;HPM_P1;HPM_P2
2022/12/27 00:00:57;;;;;;;1.50;1.40;;;8.70;99.90;;;;;;5065250;28;20476;-79
2022/12/27 00:03:25;;;;;;;1.40;1.30;;;8.70;99.90;;;;;;5070231;28;20450;-78
2022/12/27 00:05:53;;;;;;;1.30;1.20;;;8.70;99.90;;;;;;5067703;28;21087;-78
2022/12/27 00:08:23;;;;;;;1.30;1.20;;;8.60;99.90;;;;;;5065990;28;20474;-78
2022/12/27 00:10:51;;;;;;;2.10;1.20;;;8.50;13.40;;;;;;5064909;28;20472;-79
2022/12/27 00:13:19;;;;;;;1.27;1.20;;;8.50;1.00;;;;;;5060624;28;20504;-79
2022/12/27 00:15:47;;;;;;;1.20;1.17;;;8.50;1.00;;;;;;5064684;28;20513;-79
2022/12/27 00:18:15;;;;;;;0.90;0.90;;;8.40;1.00;;;;;;5061531;28;21275;-80
2022/12/27 00:20:43;;;;;;;1.57;1.20;;;8.50;1.00;;;;;;5065583;28;20481;-82
2022/12/27 00:23:11;;;;;;;1.20;1.20;;;8.50;99.90;;;;;;5065779;28;21013;-81
2022/12/27 00:25:41;;;;;;;1.30;1.20;;;8.50;1.00;;;;;;5056256;28;20960;-83
2022/12/27 00:28:09;;;;;;;1.63;1.33;;;8.40;64.30;;;;;;5054936;28;20482;-80
2022/12/27 00:30:37;;;;;;;1.30;1.20;;;8.40;1.00;;;;;;5058234;28;20482;-79
2022/12/27 00:33:05;;;;;;;1.50;1.40;;;8.50;1.00;;;;;;5061986;28;20483;-81
2022/12/27 00:35:34;;;;;;;1.20;1.10;;;8.40;1.00;;;;;;5065106;28;20460;-81
2022/12/27 00:38:02;;;;;;;1.30;1.20;;;8.40;1.00;;;;;;5067888;28;20963;-79
2022/12/27 00:40:30;;;;;;;1.87;1.20;;;8.40;1.00;;;;;;5066871;28;20489;-79
2022/12/27 00:42:59;;;;;;;1.30;1.20;;;8.30;99.90;;;;;;5063956;28;20506;-80
2022/12/27 00:45:28;;;;;;;3.73;1.10;;;8.20;99.90;;;;;;5060266;28;20546;-78
2022/12/27 00:47:56;;;;;;;1.10;1.10;;;8.10;99.90;;;;;;5058213;28;21099;-80
2022/12/27 00:50:24;;;;;;;1.80;1.20;;;8.10;99.90;;;;;;5058913;28;20581;-79
2022/12/27 00:52:52;;;;;;;1.57;1.20;;;8.10;99.90;;;;;;5061870;28;20860;-78
2022/12/27 00:55:20;;;;;;;1.20;1.10;;;8.10;99.90;;;;;;5061843;28;20592;-82
2022/12/27 00:57:48;;;;;;;2.27;1.27;;;8.00;99.90;;;;;;5059441;28;20449;-81
2022/12/27 01:00:18;;;;;;;2.93;1.30;;;8.00;99.90;;;;;;5061627;28;20515;-79
2022/12/27 01:02:46;;;;;;;1.13;1.07;;;8.00;99.90;;;;;;5063306;28;20440;-78
2022/12/27 01:05:14;;;;;;;2.03;1.20;;;7.90;99.90;;;;;;5052369;28;21736;-79
2022/12/27 01:07:43;;;;;;;1.63;1.10;;;7.90;99.90;;;;;;5056604;28;20482;-80
2022/12/27 01:10:11;;;;;;;1.47;1.20;;;7.90;99.90;;;;;;5063609;28;20557;-79
2022/12/27 01:12:39;;;;;;;3.73;3.47;;;7.80;99.90;;;;;;5060385;28;20486;-79
2022/12/27 01:15:09;;;;;;;1.17;1.17;;;7.90;99.90;;;;;;5061102;28;20453;-79
2022/12/27 01:17:38;;;;;;;1.73;1.10;;;7.80;99.90;;;;;;5058553;28;20952;-79
2022/12/27 01:20:08;;;;;;;1.27;1.20;;;7.80;99.90;;;;;;5059783;28;20471;-79
2022/12/27 01:22:36;;;;;;;1.87;1.30;;;7.80;99.90;;;;;;5058147;28;21748;-79
2022/12/27 01:25:05;;;;;;;1.60;1.27;;;7.80;99.90;;;;;;5061843;28;20452;-78
2022/12/27 01:27:33;;;;;;;1.37;1.27;;;7.80;99.90;;;;;;5057795;28;20487;-80
2022/12/27 01:30:01;;;;;;;1.37;1.27;;;7.70;99.90;;;;;;5056627;28;20597;-79
2022/12/27 01:32:32;;;;;;;3.30;1.33;;;7.70;99.90;;;;;;5057307;28;20453;-78
2022/12/27 01:35:01;;;;;;;1.20;1.10;;;7.60;99.90;;;;;;5067554;28;20453;-80
2022/12/27 01:37:30;;;;;;;2.40;1.30;;;7.70;99.90;;;;;;5060781;28;20519;-80
2022/12/27 01:39:58;;;;;;;1.90;1.50;;;7.70;99.90;;;;;;5065451;28;20477;-79
2022/12/27 01:45:15;;;;;;;3.60;1.00;;;7.60;99.90;;;;;;5059391;28;24141;-81
2022/12/27 01:47:49;;;;;;;1.10;1.00;;;7.60;1.00;;;;;;5057880;28;20865;-80
2022/12/27 01:50:29;;;;;;;1.40;1.00;;;7.50;1.00;;;;;;5060230;28;20486;-81
2022/12/27 01:53:05;;;;;;;1.10;1.10;;;7.40;1.00;;;;;;5057981;28;20572;-81
2022/12/27 01:55:40;;;;;;;1.20;1.10;;;7.40;1.00;;;;;;5065572;28;20455;-79
2022/12/27 01:58:11;;;;;;;2.03;1.20;;;7.30;1.00;;;;;;5064581;28;20473;-79
2022/12/27 02:00:43;;;;;;;0.90;0.90;;;7.40;1.00;;;;;;5068334;28;20478;-79
2022/12/27 02:03:13;;;;;;;1.20;1.10;;;7.30;1.00;;;;;;5067044;28;20983;-78
2022/12/27 02:05:43;;;;;;;0.90;0.90;;;7.20;1.00;;;;;;5064517;28;20547;-79
2022/12/27 02:08:36;;;;;;;1.13;0.87;;;7.30;1.00;;;;;;5063276;28;20480;-78
2022/12/27 02:11:05;;;;;;;1.00;1.00;;;7.20;1.00;;;;;;5066644;28;20482;-79
2022/12/27 02:13:37;;;;;;;1.00;1.00;;;7.30;1.00;;;;;;5067583;28;20456;-79
2022/12/27 02:16:11;;;;;;;1.10;1.10;;;7.20;1.00;;;;;;5059991;28;20533;-79
2022/12/27 02:18:39;;;;;;;1.40;1.10;;;7.30;1.00;;;;;;5059080;28;20457;-79
2022/12/27 02:21:52;;;;;;;1.10;1.00;;;7.40;1.00;;;;;;5062904;28;20532;-78
2022/12/27 02:24:40;;;;;;;1.00;1.00;;;7.20;1.00;;;;;;5063254;28;20493;-79
2022/12/27 02:27:20;;;;;;;1.23;0.90;;;7.20;1.00;;;;;;5061906;28;20446;-78
2022/12/27 02:29:59;;;;;;;1.00;1.00;;;7.30;1.00;;;;;;5060653;28;20546;-81
2022/12/27 02:32:31;;;;;;;1.20;1.10;;;7.10;1.00;;;;;;5058154;28;20580;-81
2022/12/27 02:35:06;;;;;;;2.50;1.33;;;7.10;1.00;;;;;;5057784;28;20530;-79
2022/12/27 02:37:40;;;;;;;1.10;1.00;;;7.20;1.00;;;;;;5058819;28;20458;-78
2022/12/27 02:54:43;;;;;;;1.47;1.03;;;7.10;1.00;;;;;;5061789;28;20940;-81
2022/12/27 02:57:22;;;;;;;1.10;1.00;;;6.90;1.00;;;;;;5075949;28;20510;-80
2022/12/27 03:03:23;;;;;;;3.87;1.00;;;6.90;1.00;;;;;;5059331;28;20459;-79
2022/12/27 03:06:40;;;;;;;1.13;1.03;;;6.80;1.00;;;;;;5067269;28;20966;-80
2022/12/27 03:18:13;;;;;;;0.93;0.93;;;6.80;1.00;;;;;;5050838;28;20461;-80
2022/12/27 03:26:19;;;;;;;1.37;1.00;;;6.50;1.00;;;;;;5061687;28;20464;-78
2022/12/27 03:34:45;;;;;;;1.80;1.23;;;6.60;1.00;;;;;;5043556;28;20506;-79
2022/12/27 03:40:07;;;;;;;1.27;1.10;;;6.60;1.00;;;;;;5070570;28;20471;-79
2022/12/27 03:48:20;;;;;;;1.27;1.17;;;6.60;1.00;;;;;;5064767;28;20494;-80
2022/12/27 03:50:54;;;;;;;1.30;1.20;;;6.60;1.00;;;;;;5060833;28;20474;-80
2022/12/27 03:53:26;;;;;;;1.87;1.30;;;6.60;1.00;;;;;;5065460;28;20454;-80
2022/12/27 03:55:54;;;;;;;4.53;1.27;;;6.60;1.00;;;;;;5067253;28;20953;-80
2022/12/27 03:58:22;;;;;;;2.80;1.33;;;6.60;1.00;;;;;;5069150;28;20455;-80
2022/12/27 04:00:51;;;;;;;1.60;1.30;;;6.70;1.00;;;;;;5067832;28;20493;-80
2022/12/27 04:03:19;;;;;;;2.50;1.10;;;6.70;1.00;;;;;;5072873;28;20525;-81
2022/12/27 04:05:47;;;;;;;1.40;1.10;;;6.60;1.00;;;;;;5066186;28;20454;-80
2022/12/27 04:35:54;;;;;;;2.40;1.13;;;6.40;1.00;;;;;;5065652;28;20459;-80
2022/12/27 04:38:22;;;;;;;1.23;1.07;;;6.40;4.60;;;;;;5060460;28;22377;-79
2022/12/27 04:54:57;;;;;;;1.77;1.10;;;6.00;99.90;;;;;;5059956;28;20482;-79
2022/12/27 04:57:28;;;;;;;1.40;1.30;;;6.00;99.90;;;;;;5064489;28;20532;-79
2022/12/27 05:02:41;;;;;;;1.37;1.10;;;6.10;99.90;;;;;;5057463;28;20450;-80
2022/12/27 05:05:11;;;;;;;1.40;1.23;;;6.10;99.90;;;;;;5064426;28;20446;-80
2022/12/27 05:15:59;;;;;;;1.80;1.70;;;6.10;55.20;;;;;;5063812;28;20941;-79
2022/12/27 05:18:27;;;;;;;1.20;1.10;;;6.00;99.90;;;;;;5062647;28;20819;-80
2022/12/27 05:20:56;;;;;;;2.47;1.13;;;6.10;71.10;;;;;;5060709;28;20528;-81
2022/12/27 05:26:09;;;;;;;2.87;1.10;;;5.90;83.40;;;;;;5065876;28;20452;-80
2022/12/27 05:28:39;;;;;;;2.20;1.00;;;5.90;13.50;;;;;;5063661;28;20921;-80
2022/12/27 05:31:08;;;;;;;2.28;1.08;;;5.90;99.90;;;;;;5081617;28;20498;-81
2022/12/27 05:33:37;;;;;;;1.90;1.00;;;5.90;8.90;;;;;;5063552;28;20205;-81
2022/12/27 05:36:06;;;;;;;2.60;1.00;;;6.00;15.70;;;;;;5061891;28;20442;-80
2022/12/27 05:38:34;;;;;;;1.10;1.10;;;5.90;1.00;;;;;;5062288;28;20470;-80
2022/12/27 05:41:02;;;;;;;1.23;1.10;;;6.00;1.00;;;;;;5065144;28;20529;-79
2022/12/27 05:43:31;;;;;;;2.90;1.30;;;6.00;1.00;;;;;;5062162;28;21506;-78
2022/12/27 05:46:05;;;;;;;2.20;1.10;;;5.90;1.00;;;;;;5056235;28;20470;-79
2022/12/27 05:48:34;;;;;;;1.03;0.93;;;5.90;1.00;;;;;;5063132;28;20545;-79
2022/12/27 05:51:05;;;;;;;1.20;1.07;;;5.90;1.00;;;;;;5061428;28;20847;-78
2022/12/27 05:53:34;;;;;;;1.00;1.00;;;5.90;1.00;;;;;;5060342;28;20610;-79
2022/12/27 05:56:03;;;;;;;1.10;1.00;;;5.90;1.00;;;;;;5062908;28;20459;-77
2022/12/27 05:58:32;;;;;;;1.13;1.00;;;5.80;2.90;;;;;;5062244;28;20455;-81
2022/12/27 06:01:01;;;;;;;1.00;1.00;;;5.90;6.80;;;;;;5067852;28;20244;-81
2022/12/27 06:03:31;;;;;;;1.20;1.10;;;5.90;1.00;;;;;;5069104;28;20485;-80
2022/12/27 06:06:03;;;;;;;1.83;1.13;;;5.90;1.00;;;;;;5065845;28;20469;-81
2022/12/27 06:08:32;;;;;;;1.20;1.10;;;5.90;1.00;;;;;;5059600;28;20454;-80
2022/12/27 06:11:06;;;;;;;1.10;1.10;;;5.90;1.00;;;;;;5061552;28;20475;-79
2022/12/27 06:13:34;;;;;;;1.30;1.10;;;6.00;1.00;;;;;;5066621;28;21153;-79
2022/12/27 06:16:04;;;;;;;2.07;1.20;;;6.00;1.00;;;;;;5064739;28;20476;-80
2022/12/27 06:18:37;;;;;;;1.23;1.10;;;6.00;1.00;;;;;;5060878;28;20518;-79
2022/12/27 06:21:08;;;;;;;1.00;1.00;;;6.00;1.00;;;;;;5070130;28;20463;-81
2022/12/27 06:23:37;;;;;;;1.30;1.20;;;5.90;1.00;;;;;;5065896;28;20536;-80
2022/12/27 06:26:07;;;;;;;1.27;1.17;;;5.90;1.00;;;;;;5067844;28;20477;-80
2022/12/27 06:28:35;;;;;;;1.17;1.10;;;5.80;1.00;;;;;;5065650;28;20861;-80
2022/12/27 06:31:04;;;;;;;2.00;1.20;;;5.90;1.00;;;;;;5065232;28;20493;-80
2022/12/27 06:33:34;;;;;;;1.00;1.00;;;5.80;1.00;;;;;;5066093;28;20454;-78
2022/12/27 06:36:06;;;;;;;1.40;1.30;;;5.70;22.20;;;;;;5064491;28;20459;-78
2022/12/27 06:38:34;;;;;;;1.13;1.07;;;5.60;1.00;;;;;;5064005;28;20455;-80
2022/12/27 06:41:03;;;;;;;1.50;1.00;;;5.60;18.20;;;;;;5065699;28;20481;-79
2022/12/27 06:43:31;;;;;;;1.23;1.10;;;5.60;1.00;;;;;;5060946;28;20456;-80
2022/12/27 06:46:01;;;;;;;3.05;1.13;;;5.70;18.90;;;;;;5061674;28;20450;-79
2022/12/27 06:48:30;;;;;;;1.70;1.60;;;5.50;1.00;;;;;;5066267;28;20205;-81
2022/12/27 06:50:59;;;;;;;1.37;1.10;;;5.60;3.90;;;;;;5068385;28;20259;-79
2022/12/27 06:53:27;;;;;;;1.50;1.40;;;5.60;57.00;;;;;;5064197;28;20807;-80
2022/12/27 06:55:55;;;;;;;1.73;1.10;;;5.60;20.70;;;;;;5065106;28;20459;-80
2022/12/27 06:58:24;;;;;;;1.30;1.20;;;5.50;48.40;;;;;;5066694;28;20462;-81
2022/12/27 07:00:52;;;;;;;1.87;1.10;;;5.40;99.90;;;;;;5061181;28;20481;-80
2022/12/27 07:03:20;;;;;;;1.67;1.55;;;5.40;98.90;;;;;;5066190;28;20494;-79
2022/12/27 07:05:48;;;;;;;2.45;1.20;;;5.50;87.30;;;;;;5056154;28;20648;-79
2022/12/27 07:08:17;;;;;;;1.93;1.23;;;5.60;49.30;;;;;;5065426;28;20200;-80
2022/12/27 07:10:46;;;;;;;2.85;1.30;;;5.50;62.80;;;;;;5066010;28;20492;-81
2022/12/27 07:13:14;;;;;;;1.87;1.40;;;5.50;30.80;;;;;;5061333;28;20227;-78
2022/12/27 07:15:42;;;;;;;2.90;1.33;;;5.40;99.90;;;;;;5060042;28;20463;-79
2022/12/27 07:18:10;;;;;;;2.00;1.20;;;5.50;99.90;;;;;;5061809;28;20458;-79
2022/12/27 07:20:38;;;;;;;1.40;1.20;;;5.60;99.90;;;;;;5066172;28;20873;-79
2022/12/27 07:23:06;;;;;;;1.63;1.37;;;5.60;99.90;;;;;;5066872;28;20459;-79
2022/12/27 07:25:36;;;;;;;1.77;1.40;;;5.40;99.90;;;;;;5064677;28;21008;-80
2022/12/27 07:28:04;;;;;;;1.40;1.30;;;5.40;99.90;;;;;;5065720;28;20461;-80
2022/12/27 07:30:32;;;;;;;1.47;1.37;;;5.40;99.90;;;;;;5062651;28;20220;-80
2022/12/27 07:33:01;;;;;;;1.10;1.10;;;5.30;99.90;;;;;;5061830;28;20476;-81
2022/12/27 07:35:29;;;;;;;3.57;3.03;;;5.30;99.90;;;;;;5062427;28;20204;-82
2022/12/27 07:37:57;;;;;;;2.50;1.70;;;5.40;99.90;;;;;;5062422;28;20523;-79
2022/12/27 07:40:25;;;;;;;2.83;2.30;;;5.20;99.90;;;;;;5063673;28;20467;-79
2022/12/27 07:42:55;;;;;;;1.60;1.50;;;5.20;99.90;;;;;;5063358;28;20475;-79
2022/12/27 07:45:23;;;;;;;2.30;2.10;;;5.30;99.90;;;;;;5060039;28;20685;-82
2022/12/27 07:47:52;;;;;;;1.63;1.53;;;5.40;99.90;;;;;;5062148;28;20846;-80
2022/12/27 07:50:20;;;;;;;1.50;1.40;;;5.40;99.90;;;;;;5063307;28;20492;-79
2022/12/27 07:52:48;;;;;;;1.60;1.40;;;5.50;99.90;;;;;;5058784;28;21004;-81
2022/12/27 07:55:16;;;;;;;1.50;1.40;;;5.50;99.90;;;;;;5059112;28;20491;-80
2022/12/27 07:57:44;;;;;;;1.83;1.40;;;5.50;99.90;;;;;;5057854;28;20455;-80
2022/12/27 08:00:14;;;;;;;1.60;1.50;;;5.50;99.90;;;;;;5059542;28;20513;-80
2022/12/27 08:02:43;;;;;;;1.67;1.57;;;5.50;99.90;;;;;;5061854;28;20443;-79
2022/12/27 08:05:11;;;;;;;2.50;1.77;;;5.60;99.90;;;;;;5062628;28;21174;-80
2022/12/27 08:07:40;;;;;;;2.00;1.80;;;5.60;99.90;;;;;;5059559;28;20458;-80
2022/12/27 08:10:10;;;;;;;1.67;1.40;;;5.60;99.90;;;;;;5061589;28;20475;-79
2022/12/27 08:12:39;;;;;;;2.57;2.37;;;5.60;99.90;;;;;;5060196;28;20454;-81
2022/12/27 08:15:09;;;;;;;1.83;1.73;;;5.60;99.90;;;;;;5061422;28;20462;-80
2022/12/27 08:17:38;;;;;;;2.33;1.60;;;5.70;99.90;;;;;;5063037;28;20458;-79
2022/12/27 08:20:09;;;;;;;2.87;1.60;;;5.80;99.90;;;;;;5066980;28;20470;-80
2022/12/27 08:22:37;;;;;;;3.10;1.33;;;5.80;99.90;;;;;;5062898;28;20516;-80
2022/12/27 08:25:06;;;;;;;4.30;1.73;;;6.00;99.90;;;;;;5063957;28;20984;-78
2022/12/27 08:27:34;;;;;;;1.53;1.30;;;6.20;99.90;;;;;;5062499;28;20547;-77
2022/12/27 08:30:03;;;;;;;2.70;1.30;;;6.30;99.90;;;;;;5066652;28;20474;-78
2022/12/27 08:32:31;;;;;;;2.67;1.50;;;6.20;99.90;;;;;;5064983;28;20482;-78
2022/12/27 08:35:01;;;;;;;4.17;1.83;;;6.30;99.90;;;;;;5063379;28;20950;-79
2022/12/27 08:37:49;;;;;;;1.93;1.70;;;6.40;99.90;;;;;;5061986;28;20937;-80
2022/12/27 08:40:17;;;;;;;2.07;1.30;;;6.50;53.50;;;;;;5063648;28;20466;-79
2022/12/27 08:42:45;;;;;;;1.70;1.37;;;6.50;76.00;;;;;;5064998;28;20453;-80
2022/12/27 08:45:14;;;;;;;3.80;1.37;;;6.50;56.60;;;;;;5061904;28;21056;-78
2022/12/27 08:47:42;;;;;;;2.23;1.80;;;6.60;99.90;;;;;;5064411;28;20481;-80
2022/12/27 08:50:11;;;;;;;3.77;2.30;;;6.80;48.00;;;;;;5042905;28;20503;-81
2022/12/27 08:52:40;;;;;;;3.27;2.20;;;6.80;1.00;;;;;;5041142;28;20480;-79
2022/12/27 08:55:08;;;;;;;3.67;2.63;;;6.90;3.70;;;;;;5048377;28;20996;-80
2022/12/27 08:57:37;;;;;;;3.13;1.90;;;7.00;1.00;;;;;;5045927;28;20464;-79
2022/12/27 09:00:07;;;;;;;2.67;1.73;;;7.00;1.00;;;;;;5054713;28;21053;-81
2022/12/27 09:02:35;;;;;;;1.50;1.40;;;7.10;1.00;;;;;;5050388;28;20579;-83
2022/12/27 09:05:03;;;;;;;1.43;1.30;;;7.00;1.00;;;;;;5046820;28;20463;-80
2022/12/27 09:07:33;;;;;;;1.70;1.60;;;7.10;1.00;;;;;;5049380;28;20447;-82
2022/12/27 09:10:01;;;;;;;1.40;1.30;;;7.10;1.00;;;;;;5047622;28;20906;-81
2022/12/27 09:12:31;;;;;;;3.47;1.47;;;7.10;1.00;;;;;;5044236;28;21020;-80
2022/12/27 09:14:59;;;;;;;1.70;1.50;;;7.20;1.00;;;;;;5054379;28;20449;-79
2022/12/27 09:17:27;;;;;;;2.00;1.50;;;7.30;1.00;;;;;;5043371;28;20442;-81
2022/12/27 09:19:55;;;;;;;1.40;1.30;;;7.20;1.00;;;;;;5048295;28;20223;-82
2022/12/27 09:22:23;;;;;;;1.37;1.27;;;7.20;1.00;;;;;;5045191;28;20441;-82
2022/12/27 09:24:53;;;;;;;2.43;1.70;;;7.40;1.00;;;;;;5049260;28;20455;-82
2022/12/27 09:27:21;;;;;;;1.67;1.27;;;7.40;1.00;;;;;;5048648;28;20523;-82
2022/12/27 09:29:49;;;;;;;1.87;1.50;;;7.50;1.00;;;;;;5047434;28;20533;-84
2022/12/27 09:32:17;;;;;;;1.30;1.20;;;7.40;1.00;;;;;;5045990;28;20478;-78
2022/12/27 09:34:46;;;;;;;1.47;1.37;;;7.60;1.00;;;;;;5053851;28;20451;-80
2022/12/27 09:37:14;;;;;;;1.93;1.40;;;7.70;1.00;;;;;;5043322;28;20469;-80
2022/12/27 09:39:42;;;;;;;1.63;1.17;;;7.90;1.00;;;;;;5046551;28;20476;-80
2022/12/27 09:42:24;;;;;;;1.67;1.40;;;7.80;1.00;;;;;;5040442;28;20453;-81
2022/12/27 09:45:16;;;;;;;4.20;1.50;;;8.00;1.00;;;;;;5046304;28;20445;-80
2022/12/27 09:47:52;;;;;;;2.83;1.77;;;8.20;1.00;;;;;;5046659;28;20565;-80
2022/12/27 09:50:25;;;;;;;3.97;1.93;;;8.40;1.00;;;;;;5042142;28;20478;-77
2022/12/27 09:53:00;;;;;;;2.65;1.60;;;8.60;1.00;;;;;;5028571;28;20452;-81
2022/12/27 09:55:37;;;;;;;2.60;2.17;;;8.60;1.00;;;;;;5041421;28;20664;-79
2022/12/27 09:58:19;;;;;;;2.70;2.07;;;8.50;99.90;;;;;;5041078;28;20455;-82
2022/12/27 10:00:50;;;;;;;2.23;1.43;;;8.80;99.90;;;;;;5051020;28;20475;-81
2022/12/27 10:03:21;;;;;;;1.70;1.50;;;8.80;99.90;;;;;;5043729;28;20440;-79
2022/12/27 10:05:59;;;;;;;2.33;1.50;;;9.20;99.90;;;;;;5045941;28;20490;-80
2022/12/27 10:08:39;;;;;;;1.30;1.20;;;9.50;99.90;;;;;;5048221;28;20505;-83
2022/12/27 10:11:34;;;;;;;3.73;1.70;;;9.30;99.90;;;;;;5047495;28;20518;-82
2022/12/27 10:14:16;;;;;;;2.90;1.40;;;9.40;99.90;;;;;;5048783;28;20433;-82
2022/12/27 10:16:54;;;;;;;2.90;1.87;;;9.60;99.90;;;;;;5046010;28;21257;-82
2022/12/27 10:19:36;;;;;;;1.67;1.30;;;9.70;99.90;;;;;;5042324;28;20443;-82
2022/12/27 10:22:15;;;;;;;5.60;1.50;;;9.80;99.90;;;;;;5047052;28;20447;-83
2022/12/27 10:24:48;;;;;;;2.30;1.20;;;9.90;99.90;;;;;;5041610;28;20477;-83
2022/12/27 10:27:24;;;;;;;2.83;1.93;;;9.90;99.90;;;;;;5051188;28;20470;-82
2022/12/27 10:29:55;;;;;;;2.70;1.60;;;9.90;99.90;;;;;;5051687;28;20467;-83
2022/12/27 10:32:24;;;;;;;2.13;1.40;;;10.30;99.90;;;;;;5051050;28;20546;-81
2022/12/27 10:34:56;;;;;;;2.20;2.00;;;10.50;99.90;;;;;;5049813;28;20473;-79
2022/12/27 10:37:24;;;;;;;1.40;1.30;;;10.70;99.90;;;;;;5050297;28;20441;-82
2022/12/27 10:39:52;;;;;;;3.43;1.67;;;10.70;99.90;;;;;;5048288;28;20477;-84
2022/12/27 10:42:34;;;;;;;2.50;1.20;;;10.50;99.90;;;;;;5038262;28;20635;-83
2022/12/27 10:45:31;;;;;;;5.03;1.83;;;10.50;99.90;;;;;;5050217;28;20485;-83
2022/12/27 10:48:15;;;;;;;2.50;1.63;;;10.20;99.90;;;;;;5054363;28;20551;-79
2022/12/27 10:50:49;;;;;;;2.13;1.20;;;10.20;99.90;;;;;;5052548;28;20542;-82
2022/12/27 10:53:36;;;;;;;1.90;1.60;;;10.30;99.90;;;;;;5055143;28;20516;-79
2022/12/27 10:56:12;;;;;;;1.20;1.20;;;10.40;99.90;;;;;;5054476;28;20455;-82
2022/12/27 10:58:43;;;;;;;1.50;1.40;;;10.50;99.90;;;;;;5050857;28;20457;-83
2022/12/27 11:01:23;;;;;;;2.77;1.37;;;10.60;99.90;;;;;;5055830;28;21375;-83
2022/12/27 11:03:52;;;;;;;2.97;1.30;;;10.70;99.90;;;;;;5052543;28;20469;-81
2022/12/27 11:06:24;;;;;;;1.90;1.57;;;10.90;99.90;;;;;;5053602;28;20465;-85
2022/12/27 11:08:53;;;;;;;1.40;1.20;;;11.10;99.90;;;;;;5052356;28;20503;-81
2022/12/27 11:11:23;;;;;;;1.37;1.10;;;11.10;99.90;;;;;;5051145;28;21481;-82
2022/12/27 11:13:52;;;;;;;1.33;1.20;;;11.00;99.90;;;;;;5053040;28;20473;-83
2022/12/27 11:16:29;;;;;;;2.03;1.50;;;10.90;99.90;;;;;;5060552;28;20464;-79
2022/12/27 11:18:58;;;;;;;2.83;1.67;;;10.90;99.90;;;;;;5050474;28;21894;-83
2022/12/27 11:21:28;;;;;;;1.40;1.10;;;11.10;99.90;;;;;;5046012;28;20486;-81
2022/12/27 11:23:59;;;;;;;1.43;1.20;;;11.20;99.90;;;;;;5045855;28;20448;-83
2022/12/27 11:26:29;;;;;;;1.47;1.10;;;11.20;99.90;;;;;;5053569;28;20464;-84
2022/12/27 11:29:00;;;;;;;2.90;1.77;;;11.40;99.90;;;;;;5050017;28;21611;-83
2022/12/27 11:31:35;;;;;;;1.43;1.33;;;11.20;99.90;;;;;;5047799;28;20525;-84
2022/12/27 11:34:07;;;;;;;1.33;1.23;;;10.90;99.90;;;;;;5048343;28;20485;-80
2022/12/27 11:36:41;;;;;;;2.70;1.33;;;10.70;99.90;;;;;;5037503;28;20453;-84
2022/12/27 11:39:38;;;;;;;1.27;1.17;;;10.50;99.90;;;;;;5037285;28;20278;-83
2022/12/27 11:42:12;;;;;;;1.20;1.10;;;10.50;99.90;;;;;;5043017;28;20447;-81
2022/12/27 11:44:46;;;;;;;2.63;1.60;;;10.40;99.90;;;;;;5053085;28;20462;-82
2022/12/27 11:47:27;;;;;;;2.80;1.60;;;10.50;99.90;;;;;;5046111;28;20475;-84
2022/12/27 11:50:00;;;;;;;3.50;1.40;;;10.30;99.90;;;;;;5045225;28;20530;-84
2022/12/27 11:52:55;;;;;;;2.40;1.40;;;10.00;99.90;;;;;;5046000;28;20913;-84
2022/12/27 11:55:49;;;;;;;2.37;1.70;;;10.10;99.90;;;;;;5058039;28;20545;-83
2022/12/27 11:58:41;;;;;;;3.23;1.50;;;10.10;99.90;;;;;;5052899;28;21032;-81
2022/12/27 12:01:29;;;;;;;4.87;2.33;;;10.20;99.90;;;;;;5047784;28;20478;-82
2022/12/27 12:04:17;;;;;;;2.40;1.73;;;10.10;99.90;;;;;;5050357;28;20471;-84
2022/12/27 12:06:55;;;;;;;3.00;2.20;;;9.80;99.90;;;;;;5056100;28;20490;-82
2022/12/27 12:09:38;;;;;;;1.70;1.60;;;9.80;99.90;;;;;;5045712;28;20494;-85
2022/12/27 12:12:52;;;;;;;5.10;2.73;;;9.80;99.90;;;;;;5049927;28;20977;-84
2022/12/27 12:15:41;;;;;;;2.23;1.70;;;9.80;99.90;;;;;;5050915;28;20463;-84
2022/12/27 12:18:56;;;;;;;3.80;2.27;;;9.80;99.90;;;;;;5042676;28;20990;-83
2022/12/27 12:21:28;;;;;;;1.80;1.40;;;9.80;99.90;;;;;;5046708;28;20482;-84
2022/12/27 12:24:34;;;;;;;3.33;1.70;;;10.00;99.90;;;;;;5045068;28;20453;-83
2022/12/27 12:27:26;;;;;;;3.33;1.30;;;10.10;99.90;;;;;;5055007;28;20536;-82
2022/12/27 12:30:15;;;;;;;2.03;1.70;;;10.10;99.90;;;;;;5047981;28;20507;-84
2022/12/27 12:33:05;;;;;;;1.50;1.40;;;10.30;99.90;;;;;;5048900;28;20481;-82
2022/12/27 12:35:55;;;;;;;1.80;1.70;;;10.40;99.90;;;;;;5057436;28;20459;-83
2022/12/27 12:38:32;;;;;;;1.40;1.30;;;10.40;99.90;;;;;;5052500;28;20469;-79
2022/12/27 12:41:34;;;;;;;3.20;1.10;;;10.70;99.90;;;;;;5046058;28;20488;-83
2022/12/27 12:44:37;;;;;;;2.20;1.30;;;10.50;99.90;;;;;;5059529;28;21314;-81
2022/12/27 12:47:22;;;;;;;1.50;1.20;;;10.50;99.90;;;;;;5049497;28;20815;-81
2022/12/27 12:50:05;;;;;;;6.97;1.50;;;10.50;99.90;;;;;;5051031;28;20478;-83
2022/12/27 12:53:05;;;;;;;2.93;1.80;;;10.60;99.90;;;;;;5054221;28;21289;-81
2022/12/27 12:55:54;;;;;;;3.23;1.63;;;10.50;99.90;;;;;;5048731;28;20502;-81
2022/12/27 12:58:42;;;;;;;1.60;1.50;;;10.50;99.90;;;;;;5044524;28;20464;-84
2022/12/27 13:01:45;;;;;;;1.60;1.50;;;10.50;99.90;;;;;;5051918;28;20479;-83
2022/12/27 13:04:35;;;;;;;1.10;1.10;;;10.40;99.90;;;;;;5019796;28;20551;-82
2022/12/27 13:07:20;;;;;;;4.17;1.47;;;10.40;99.90;;;;;;5055233;28;20432;-82
2022/12/27 13:10:05;;;;;;;4.77;3.20;;;10.40;99.90;;;;;;5056117;28;20479;-84
2022/12/27 13:12:39;;;;;;;4.80;1.90;;;10.10;99.90;;;;;;5042021;28;20460;-86
2022/12/27 13:15:24;;;;;;;1.90;1.20;;;10.20;99.90;;;;;;5048513;28;20469;-83
2022/12/27 13:18:02;;;;;;;1.80;1.07;;;10.20;99.90;;;;;;5048106;28;20501;-84
2022/12/27 13:20:50;;;;;;;1.57;1.00;;;10.20;99.90;;;;;;5051804;28;20498;-82
2022/12/27 13:23:30;;;;;;;1.87;1.20;;;10.20;99.90;;;;;;5050854;28;20462;-81
2022/12/27 13:26:06;;;;;;;1.27;1.13;;;10.20;99.90;;;;;;5050631;28;20897;-80
2022/12/27 13:28:43;;;;;;;2.17;1.20;;;10.20;99.90;;;;;;5051795;28;20459;-83
2022/12/27 13:31:27;;;;;;;1.93;1.50;;;10.30;99.90;;;;;;5054619;28;20532;-83
2022/12/27 13:34:07;;;;;;;2.80;1.30;;;10.30;99.90;;;;;;5044748;28;20544;-83
2022/12/27 13:36:43;;;;;;;1.70;1.20;;;10.30;99.90;;;;;;5058993;28;20455;-81
2022/12/27 13:39:30;;;;;;;4.60;1.17;;;10.30;99.90;;;;;;5044883;28;20491;-83
2022/12/27 13:42:14;;;;;;;2.53;1.50;;;10.40;99.90;;;;;;5046405;28;20532;-84
2022/12/27 13:44:54;;;;;;;1.47;1.00;;;10.40;99.90;;;;;;5046181;28;20521;-84
2022/12/27 13:47:42;;;;;;;1.20;1.10;;;10.40;99.90;;;;;;5049544;28;20466;-81
2022/12/27 13:50:37;;;;;;;1.37;1.27;;;10.30;99.90;;;;;;5049009;28;20475;-82
2022/12/27 13:53:23;;;;;;;3.50;1.20;;;10.20;99.90;;;;;;5052068;28;20454;-83
2022/12/27 13:55:55;;;;;;;2.13;1.10;;;10.20;99.90;;;;;;5055152;28;20435;-83
2022/12/27 13:58:53;;;;;;;2.77;1.33;;;10.20;99.90;;;;;;5060979;28;20449;-80
2022/12/27 14:01:58;;;;;;;1.53;1.00;;;10.20;99.90;;;;;;5057467;28;20510;-83
2022/12/27 14:04:45;;;;;;;2.00;1.20;;;10.10;99.90;;;;;;5069126;28;20437;-83
2022/12/27 14:07:42;;;;;;;1.60;1.17;;;10.10;99.90;;;;;;5057101;28;21027;-83
2022/12/27 14:10:28;;;;;;;1.60;1.50;;;10.00;99.90;;;;;;5062033;28;20462;-84
2022/12/27 14:13:01;;;;;;;4.63;1.10;;;10.00;99.90;;;;;;5052675;28;20586;-84
2022/12/27 14:15:47;;;;;;;1.43;1.10;;;9.80;99.90;;;;;;5046820;28;20476;-82
2022/12/27 14:18:29;;;;;;;2.80;1.53;;;9.60;99.90;;;;;;5046511;28;20502;-83
2022/12/27 14:21:11;;;;;;;2.70;1.30;;;9.50;99.90;;;;;;5048722;28;20478;-82
2022/12/27 14:24:09;;;;;;;2.80;2.03;;;9.50;99.90;;;;;;5052932;28;20443;-84
2022/12/27 14:27:06;;;;;;;2.80;1.53;;;9.50;99.90;;;;;;5051093;28;20451;-81
2022/12/27 14:30:12;;;;;;;2.10;1.30;;;9.40;99.90;;;;;;5042990;28;20545;-82
2022/12/27 14:33:22;;;;;;;2.33;1.60;;;9.30;99.90;;;;;;5056423;28;20515;-81
2022/12/27 14:36:28;;;;;;;1.60;1.47;;;9.30;99.90;;;;;;5050366;28;20492;-81
2022/12/27 14:39:28;;;;;;;4.13;2.47;;;9.10;99.90;;;;;;5048543;28;20504;-81
2022/12/27 14:42:41;;;;;;;1.40;1.20;;;8.90;99.90;;;;;;5046402;28;20473;-81
2022/12/27 14:45:39;;;;;;;2.53;1.50;;;9.00;99.90;;;;;;5047765;28;21133;-82
2022/12/27 14:48:39;;;;;;;1.90;1.20;;;8.90;99.90;;;;;;5050972;28;20468;-83
2022/12/27 14:51:45;;;;;;;1.43;1.33;;;8.90;99.90;;;;;;5041124;28;20538;-82
2022/12/27 14:55:06;;;;;;;8.63;2.10;;;8.80;99.90;;;;;;5023426;28;20511;-81
2022/12/27 14:57:42;;;;;;;2.33;1.50;;;8.90;99.90;;;;;;5049363;28;20482;-82
2022/12/27 15:00:15;;;;;;;1.80;1.40;;;8.80;99.90;;;;;;5045405;28;20490;-82
2022/12/27 15:03:09;;;;;;;3.33;1.70;;;8.80;99.90;;;;;;5043637;28;20464;-82
2022/12/27 15:05:48;;;;;;;3.70;1.37;;;8.90;99.90;;;;;;5042018;28;20899;-83
2022/12/27 15:08:32;;;;;;;3.73;1.70;;;8.90;99.90;;;;;;5048468;28;20557;-80
2022/12/27 15:11:18;;;;;;;2.70;1.60;;;9.00;99.90;;;;;;5053583;28;20481;-80
2022/12/27 15:13:59;;;;;;;1.80;1.30;;;9.10;99.90;;;;;;5047701;28;20450;-81
2022/12/27 15:16:38;;;;;;;4.23;1.53;;;9.00;99.90;;;;;;5049932;28;20531;-81
2022/12/27 15:19:25;;;;;;;2.73;1.57;;;9.00;99.90;;;;;;5049710;28;20465;-79
2022/12/27 15:22:01;;;;;;;3.23;2.00;;;8.90;99.90;;;;;;5052252;28;20538;-81
2022/12/27 15:24:42;;;;;;;4.10;1.80;;;8.90;99.90;;;;;;5044653;28;20457;-80
2022/12/27 15:27:20;;;;;;;1.30;1.20;;;8.80;99.90;;;;;;5049652;28;20460;-81